createdAt,value
2022-10-23T00:00:42.215Z,10.32
2022-10-23T00:03:08.055Z,10.32
2022-10-23T00:05:33.960Z,10.31
2022-10-23T00:07:59.995Z,10.29
2022-10-23T00:10:27.149Z,10.25
2022-10-23T00:12:53.831Z,10.24
2022-10-23T00:15:21.927Z,10.21
2022-10-23T00:17:48.000Z,10.21
2022-10-23T00:20:15.787Z,10.20
2022-10-23T00:22:41.526Z,10.17
2022-10-23T00:25:08.328Z,10.16
2022-10-23T00:27:34.747Z,10.15
2022-10-23T00:30:01.706Z,10.13
2022-10-23T00:32:27.865Z,10.10
2022-10-23T00:34:53.939Z,10.06
2022-10-23T00:37:20.056Z,10.03
2022-10-23T00:39:45.742Z,10.01
2022-10-23T00:42:20.217Z,10.00
2022-10-23T00:44:45.784Z,10.01
2022-10-23T00:47:13.234Z,10.01
2022-10-23T00:49:41.956Z,10.00
2022-10-23T00:52:11.480Z,10.00
2022-10-23T00:54:39.924Z,9.98
2022-10-23T00:57:09.107Z,9.96
2022-10-23T00:59:35.042Z,9.95
2022-10-23T01:02:01.271Z,9.92
2022-10-23T01:04:28.079Z,9.91
2022-10-23T01:07:09.867Z,9.92
2022-10-23T01:10:02.524Z,9.91
2022-10-23T01:12:44.007Z,9.88
2022-10-23T01:15:19.363Z,9.84
2022-10-23T01:18:14.435Z,9.80
2022-10-23T01:20:44.868Z,9.80
2022-10-23T01:23:32.276Z,9.79
2022-10-23T01:26:15.831Z,9.78
2022-10-23T01:29:06.121Z,9.76
2022-10-23T01:31:36.729Z,9.77
2022-10-23T01:34:16.103Z,9.79
2022-10-23T01:36:46.864Z,9.79
2022-10-23T01:39:22.058Z,9.78
2022-10-23T01:42:04.417Z,9.76
2022-10-23T01:44:42.769Z,9.78
2022-10-23T01:47:11.135Z,9.79
2022-10-23T01:49:39.653Z,9.77
2022-10-23T01:52:09.089Z,9.77
2022-10-23T01:54:39.854Z,9.77
2022-10-23T01:57:09.746Z,9.79
2022-10-23T01:59:43.685Z,9.79
2022-10-23T02:02:11.385Z,9.78
2022-10-23T02:04:41.404Z,9.75
2022-10-23T02:07:07.634Z,9.74
2022-10-23T02:09:33.966Z,9.70
2022-10-23T02:12:07.657Z,9.70
2022-10-23T02:14:37.306Z,9.69
2022-10-23T02:17:15.812Z,9.70
2022-10-23T02:20:20.360Z,9.69
2022-10-23T02:22:59.684Z,9.69
2022-10-23T02:25:43.881Z,9.69
2022-10-23T02:28:14.726Z,9.66
2022-10-23T02:30:44.390Z,9.60
2022-10-23T02:33:12.618Z,9.55
2022-10-23T02:35:38.423Z,9.52
2022-10-23T02:38:34.940Z,9.47
2022-10-23T02:41:14.914Z,9.43
2022-10-23T02:43:52.154Z,9.42
2022-10-23T02:46:20.476Z,9.41
2022-10-23T02:49:18.223Z,9.39
2022-10-23T02:52:01.301Z,9.35
2022-10-23T02:54:54.524Z,9.29
2022-10-23T02:57:36.976Z,9.22
2022-10-23T03:00:13.150Z,9.18
2022-10-23T03:02:56.036Z,9.16
2022-10-23T03:05:25.838Z,9.12
2022-10-23T03:07:51.761Z,9.09
2022-10-23T03:10:17.523Z,9.07
2022-10-23T03:12:43.698Z,9.07
2022-10-23T03:15:11.608Z,9.04
2022-10-23T03:17:37.458Z,8.99
2022-10-23T03:20:04.735Z,8.91
2022-10-23T03:22:33.310Z,8.87
2022-10-23T03:24:59.058Z,8.85
2022-10-23T03:27:24.850Z,8.83
2022-10-23T03:29:50.624Z,8.80
2022-10-23T03:32:16.412Z,8.78
2022-10-23T03:34:42.303Z,8.73
2022-10-23T03:37:08.072Z,8.72
2022-10-23T03:39:33.841Z,8.71
2022-10-23T03:41:59.703Z,8.70
2022-10-23T03:44:25.694Z,8.68
2022-10-23T03:46:51.441Z,8.69
2022-10-23T03:49:17.147Z,8.69
2022-10-23T03:51:44.055Z,8.70
2022-10-23T03:54:10.493Z,8.71
2022-10-23T03:56:36.155Z,8.71
2022-10-23T03:59:01.825Z,8.73
2022-10-23T04:01:27.649Z,8.75
2022-10-23T04:03:53.421Z,8.76
2022-10-23T04:06:19.179Z,8.76
2022-10-23T04:08:45.091Z,8.78
2022-10-23T04:11:11.011Z,8.79
2022-10-23T04:13:37.015Z,8.81
2022-10-23T04:16:03.076Z,8.80
2022-10-23T04:18:28.825Z,8.82
2022-10-23T04:20:54.465Z,8.81
2022-10-23T04:23:20.185Z,8.82
2022-10-23T04:28:17.043Z,8.78
2022-10-23T04:30:42.719Z,8.79
2022-10-23T04:33:08.503Z,8.81
2022-10-23T04:35:34.161Z,8.79
2022-10-23T04:37:59.909Z,8.79
2022-10-23T04:40:25.589Z,8.75
2022-10-23T04:42:51.243Z,8.69
2022-10-23T04:45:16.991Z,8.64
2022-10-23T04:47:42.651Z,8.65
2022-10-23T04:50:08.380Z,8.65
2022-10-23T04:52:34.060Z,8.60
2022-10-23T04:54:59.718Z,8.58
2022-10-23T04:57:25.539Z,8.58
2022-10-23T04:59:51.292Z,8.57
2022-10-23T05:02:17.246Z,8.57
2022-10-23T05:04:42.890Z,8.55
2022-10-23T05:07:08.672Z,8.53
2022-10-23T05:09:34.646Z,8.50
2022-10-23T05:12:00.329Z,8.48
2022-10-23T05:14:25.994Z,8.48
2022-10-23T05:16:58.069Z,8.44
2022-10-23T05:19:28.920Z,8.39
2022-10-23T05:21:56.048Z,8.37
2022-10-23T05:24:22.983Z,8.38
2022-10-23T05:26:50.971Z,8.38
2022-10-23T05:29:17.265Z,8.34
2022-10-23T05:31:43.276Z,8.30
2022-10-23T05:34:13.308Z,8.27
2022-10-23T05:36:39.284Z,8.27
2022-10-23T05:39:05.092Z,8.28
2022-10-23T05:41:30.901Z,8.30
2022-10-23T05:43:56.567Z,8.28
2022-10-23T05:46:27.181Z,8.27
2022-10-23T05:48:52.951Z,8.29
2022-10-23T05:51:21.577Z,8.30
2022-10-23T05:53:48.460Z,8.31
2022-10-23T05:56:14.412Z,8.35
2022-10-23T05:58:40.083Z,8.39
2022-10-23T06:01:08.406Z,8.43
2022-10-23T06:03:34.709Z,8.43
2022-10-23T06:06:00.634Z,8.47
2022-10-23T06:08:26.379Z,8.51
2022-10-23T06:10:52.067Z,8.56
2022-10-23T06:13:18.130Z,8.65
2022-10-23T06:15:43.803Z,8.73
2022-10-23T06:18:09.624Z,8.80
2022-10-23T06:20:36.873Z,8.84
2022-10-23T06:23:03.816Z,8.91
2022-10-23T06:25:29.482Z,8.97
2022-10-23T06:27:55.177Z,9.00
2022-10-23T06:30:20.864Z,9.06
2022-10-23T06:32:46.563Z,9.20
2022-10-23T06:35:12.596Z,9.37
2022-10-23T06:37:38.250Z,9.51
2022-10-23T06:40:05.357Z,9.69
2022-10-23T06:42:31.131Z,9.87
2022-10-23T06:44:56.970Z,10.02
2022-10-23T06:47:22.734Z,10.14
2022-10-23T06:49:48.429Z,10.28
2022-10-23T06:52:23.228Z,10.47
2022-10-23T06:54:59.692Z,10.62
2022-10-23T06:57:25.471Z,10.74
2022-10-23T06:59:51.425Z,10.82
2022-10-23T07:02:17.122Z,10.88
2022-10-23T07:04:42.829Z,10.94
2022-10-23T07:07:08.521Z,11.00
2022-10-23T07:09:35.563Z,11.04
2022-10-23T07:12:01.200Z,11.13
2022-10-23T07:14:26.888Z,11.24
2022-10-23T07:16:52.629Z,11.31
2022-10-23T07:19:18.394Z,11.41
2022-10-23T07:21:44.074Z,11.51
2022-10-23T07:24:10.014Z,11.60
2022-10-23T07:26:35.798Z,11.73
2022-10-23T07:29:01.475Z,11.78
2022-10-23T07:31:28.253Z,11.92
2022-10-23T07:33:54.712Z,12.01
2022-10-23T07:36:20.473Z,12.09
2022-10-23T07:38:46.178Z,12.15
2022-10-23T07:41:12.545Z,12.26
2022-10-23T07:43:38.750Z,12.30
2022-10-23T07:46:04.755Z,12.37
2022-10-23T07:48:30.472Z,12.45
2022-10-23T07:51:00.961Z,12.55
2022-10-23T07:53:26.806Z,12.63
2022-10-23T07:56:04.051Z,12.72
2022-10-23T07:58:30.544Z,12.78
2022-10-23T08:01:01.703Z,12.94
2022-10-23T08:03:32.675Z,13.01
2022-10-23T08:05:59.401Z,13.06
2022-10-23T08:08:25.551Z,13.15
2022-10-23T08:10:53.038Z,13.31
2022-10-23T08:13:19.939Z,13.48
2022-10-23T08:15:47.469Z,13.57
2022-10-23T08:18:13.362Z,13.64
2022-10-23T08:20:43.385Z,13.72
2022-10-23T08:23:11.957Z,13.76
2022-10-23T08:25:39.470Z,13.74
2022-10-23T08:28:06.388Z,13.80
2022-10-23T08:30:32.768Z,13.85
2022-10-23T08:32:58.429Z,13.93
2022-10-23T08:35:24.119Z,13.95
2022-10-23T08:37:49.857Z,13.96
2022-10-23T08:40:22.531Z,13.99
2022-10-23T08:42:58.727Z,14.08
2022-10-23T08:45:34.618Z,14.11
2022-10-23T08:48:19.572Z,14.26
2022-10-23T08:50:50.564Z,14.42
2022-10-23T08:53:16.171Z,14.48
2022-10-23T08:55:46.587Z,14.56
2022-10-23T08:58:19.438Z,14.69
2022-10-23T09:00:47.006Z,14.79
2022-10-23T09:03:13.222Z,14.84
2022-10-23T09:05:53.974Z,14.95
2022-10-23T09:08:56.560Z,15.11
2022-10-23T09:11:35.740Z,15.33
2022-10-23T09:14:43.098Z,15.54
2022-10-23T09:17:20.582Z,15.68
2022-10-23T09:19:47.096Z,15.78
2022-10-23T09:22:13.127Z,15.84
2022-10-23T09:24:41.933Z,15.95
2022-10-23T09:27:15.324Z,16.05
2022-10-23T09:29:46.376Z,16.08
2022-10-23T09:32:12.037Z,16.14
2022-10-23T09:34:50.440Z,16.20
2022-10-23T09:37:27.728Z,16.37
2022-10-23T09:40:15.014Z,16.41
2022-10-23T09:42:51.458Z,16.45
2022-10-23T09:45:25.864Z,16.50
2022-10-23T09:48:05.274Z,16.53
2022-10-23T09:50:31.092Z,16.56
2022-10-23T09:52:57.799Z,16.60
2022-10-23T09:55:25.240Z,16.63
2022-10-23T09:57:53.213Z,16.74
2022-10-23T10:00:23.299Z,16.84
2022-10-23T10:03:03.269Z,16.92
2022-10-23T10:05:30.357Z,17.02
2022-10-23T10:08:03.148Z,17.03
2022-10-23T10:10:35.821Z,17.11
2022-10-23T10:13:15.205Z,17.13
2022-10-23T10:15:49.535Z,17.02
2022-10-23T10:18:31.992Z,16.96
2022-10-23T10:21:19.709Z,16.87
2022-10-23T10:24:19.167Z,16.83
2022-10-23T10:27:02.455Z,16.92
2022-10-23T10:29:46.694Z,17.02
2022-10-23T10:32:35.186Z,17.01
2022-10-23T10:35:21.529Z,17.07
2022-10-23T10:38:15.580Z,17.18
2022-10-23T10:40:50.588Z,17.25
2022-10-23T10:43:38.440Z,17.27
2022-10-23T10:48:56.264Z,17.37
2022-10-23T10:51:28.084Z,17.48
2022-10-23T10:54:11.140Z,17.69
2022-10-23T10:56:39.898Z,17.81
2022-10-23T10:59:15.390Z,17.93
2022-10-23T11:01:48.862Z,18.00
2022-10-23T11:04:31.100Z,17.99
2022-10-23T11:06:59.316Z,18.04
2022-10-23T11:09:28.144Z,18.19
2022-10-23T11:11:54.331Z,18.33
2022-10-23T11:14:25.706Z,18.42
2022-10-23T11:16:58.805Z,18.56
2022-10-23T11:19:39.254Z,18.67
2022-10-23T11:22:10.849Z,18.73
2022-10-23T11:24:58.495Z,18.80
2022-10-23T11:28:04.435Z,18.79
2022-10-23T11:30:53.428Z,18.76
2022-10-23T11:33:34.905Z,18.81
2022-10-23T11:36:48.137Z,18.87
2022-10-23T11:39:32.015Z,18.88
2022-10-23T11:42:19.922Z,18.81
2022-10-23T11:44:47.252Z,18.77
2022-10-23T11:47:36.433Z,18.69
2022-10-23T11:50:07.590Z,18.76
2022-10-23T11:53:12.583Z,18.88
2022-10-23T11:55:38.463Z,18.85
2022-10-23T11:58:04.077Z,18.83
2022-10-23T12:00:31.923Z,18.73
2022-10-23T12:02:59.355Z,18.89
2022-10-23T12:05:35.761Z,18.97
2022-10-23T12:08:04.589Z,19.04
2022-10-23T12:10:34.034Z,19.06
2022-10-23T12:13:05.192Z,19.16
2022-10-23T12:15:34.118Z,19.26
2022-10-23T12:18:16.222Z,19.30
2022-10-23T12:20:49.384Z,19.32
2022-10-23T12:23:21.142Z,19.40
2022-10-23T12:26:02.144Z,19.42
2022-10-23T12:28:56.261Z,19.52
2022-10-23T12:31:52.385Z,19.52
2022-10-23T12:34:25.635Z,19.50
2022-10-23T12:37:22.213Z,19.31
2022-10-23T12:39:54.026Z,19.29
2022-10-23T12:42:25.525Z,19.29
2022-10-23T12:45:01.438Z,19.28
2022-10-23T12:47:29.118Z,19.29
2022-10-23T12:49:55.076Z,19.35
2022-10-23T12:52:23.718Z,19.46
2022-10-23T12:54:50.079Z,19.55
2022-10-23T12:57:28.141Z,19.59
2022-10-23T13:00:01.594Z,19.58
2022-10-23T13:02:29.721Z,19.39
2022-10-23T13:05:00.174Z,19.32
2022-10-23T13:07:29.093Z,19.28
2022-10-23T13:09:55.283Z,19.28
2022-10-23T13:12:29.987Z,19.35
2022-10-23T13:15:02.697Z,19.29
2022-10-23T13:17:35.907Z,19.30
2022-10-23T13:20:31.543Z,19.18
2022-10-23T13:23:09.348Z,19.16
2022-10-23T13:25:37.521Z,19.13
2022-10-23T13:28:21.127Z,19.09
2022-10-23T13:31:17.043Z,19.11
2022-10-23T13:33:44.174Z,19.02
2022-10-23T13:36:12.635Z,18.97
2022-10-23T13:39:09.385Z,18.85
2022-10-23T13:41:39.956Z,18.78
2022-10-23T13:44:06.152Z,18.77
2022-10-23T13:46:32.112Z,18.75
2022-10-23T13:48:57.794Z,18.73
2022-10-23T13:51:27.657Z,18.80
2022-10-23T13:53:54.699Z,18.81
2022-10-23T13:56:21.194Z,18.81
2022-10-23T13:58:48.023Z,18.78
2022-10-23T14:01:29.721Z,18.73
2022-10-23T14:03:57.821Z,18.69
2022-10-23T14:06:23.611Z,18.62
2022-10-23T14:08:49.540Z,18.68
2022-10-23T14:11:17.272Z,18.63
2022-10-23T14:13:43.578Z,18.59
2022-10-23T14:16:11.992Z,18.54
2022-10-23T14:18:38.018Z,18.49
2022-10-23T14:21:06.769Z,18.39
2022-10-23T14:23:32.423Z,18.30
2022-10-23T14:26:02.335Z,18.19
2022-10-23T14:28:31.486Z,18.12
2022-10-23T14:30:57.160Z,18.14
2022-10-23T14:33:23.008Z,18.24
2022-10-23T14:35:49.876Z,18.24
2022-10-23T14:38:15.776Z,18.24
2022-10-23T14:40:41.584Z,18.17
2022-10-23T14:43:07.269Z,18.16
2022-10-23T14:45:32.956Z,18.17
2022-10-23T14:48:00.382Z,18.14
2022-10-23T14:50:26.501Z,18.13
2022-10-23T14:52:52.222Z,18.10
2022-10-23T14:55:18.247Z,18.04
2022-10-23T14:57:44.154Z,17.95
2022-10-23T15:00:10.866Z,17.95
2022-10-23T15:02:36.815Z,17.91
2022-10-23T15:05:04.661Z,17.88
2022-10-23T15:07:30.322Z,17.74
2022-10-23T15:09:56.353Z,17.66
2022-10-23T15:12:22.521Z,17.67
2022-10-23T15:14:48.202Z,17.65
2022-10-23T15:17:15.663Z,17.61
2022-10-23T15:19:41.685Z,17.58
2022-10-23T15:22:07.364Z,17.48
2022-10-23T15:24:33.093Z,17.35
2022-10-23T15:26:59.691Z,17.33
2022-10-23T15:29:25.542Z,17.20
2022-10-23T15:31:57.099Z,17.10
2022-10-23T15:34:25.335Z,17.04
2022-10-23T15:36:52.188Z,16.97
2022-10-23T15:39:21.558Z,16.91
2022-10-23T15:41:50.277Z,16.75
2022-10-23T15:44:18.704Z,16.66
2022-10-23T15:46:44.725Z,16.60
2022-10-23T15:49:11.359Z,16.58
2022-10-23T15:51:38.681Z,16.51
2022-10-23T15:54:05.631Z,16.44
2022-10-23T15:56:31.374Z,16.40
2022-10-23T15:58:57.197Z,16.36
2022-10-23T16:01:22.918Z,16.33
2022-10-23T16:03:49.432Z,16.31
2022-10-23T16:06:16.586Z,16.24
2022-10-23T16:08:45.608Z,16.20
2022-10-23T16:11:18.295Z,16.18
2022-10-23T16:13:44.851Z,16.16
2022-10-23T16:16:11.482Z,16.14
2022-10-23T16:18:37.532Z,16.12
2022-10-23T16:21:03.358Z,16.04
2022-10-23T16:23:29.335Z,16.02
2022-10-23T16:25:55.244Z,15.98
2022-10-23T16:28:21.178Z,15.94
2022-10-23T16:30:46.952Z,15.90
2022-10-23T16:33:12.630Z,15.83
2022-10-23T16:35:38.656Z,15.81
2022-10-23T16:38:04.929Z,15.77
2022-10-23T16:40:30.702Z,15.76
2022-10-23T16:42:57.277Z,15.72
2022-10-23T16:45:23.293Z,15.65
2022-10-23T16:47:49.118Z,15.61
2022-10-23T16:50:15.556Z,15.58
2022-10-23T16:52:41.667Z,15.55
2022-10-23T16:55:08.659Z,15.46
2022-10-23T16:57:35.566Z,15.41
2022-10-23T17:00:01.232Z,15.39
2022-10-23T17:02:27.902Z,15.36
2022-10-23T17:04:53.676Z,15.35
2022-10-23T17:07:19.452Z,15.30
2022-10-23T17:09:48.249Z,15.33
2022-10-23T17:12:14.834Z,15.32
2022-10-23T17:14:40.968Z,15.35
2022-10-23T17:17:08.919Z,15.36
2022-10-23T17:19:51.066Z,15.26
2022-10-23T17:22:16.760Z,15.25
2022-10-23T17:24:47.529Z,15.23
2022-10-23T17:27:16.137Z,15.21
2022-10-23T17:29:41.839Z,15.11
2022-10-23T17:32:07.635Z,15.11
2022-10-23T17:34:33.524Z,15.09
2022-10-23T17:36:59.224Z,15.04
2022-10-23T17:39:27.329Z,15.00
2022-10-23T17:41:54.072Z,15.00
2022-10-23T17:44:20.447Z,14.99
2022-10-23T17:46:52.404Z,14.99
2022-10-23T17:49:18.588Z,14.98
2022-10-23T17:51:44.285Z,14.96
2022-10-23T17:54:11.220Z,14.95
2022-10-23T17:56:37.674Z,14.89
2022-10-23T17:59:10.830Z,14.84
2022-10-23T18:01:37.705Z,14.81
2022-10-23T18:04:06.239Z,14.76
2022-10-23T18:06:35.473Z,14.74
2022-10-23T18:09:03.504Z,14.70
2022-10-23T18:11:36.113Z,14.67
2022-10-23T18:14:03.190Z,14.65
2022-10-23T18:16:29.023Z,14.67
2022-10-23T18:18:55.803Z,14.65
2022-10-23T18:21:23.562Z,14.66
2022-10-23T18:23:49.713Z,14.66
2022-10-23T18:26:18.239Z,14.66
2022-10-23T18:28:45.882Z,14.65
2022-10-23T18:31:12.372Z,14.63
2022-10-23T18:33:38.443Z,14.64
2022-10-23T18:36:12.648Z,14.66
2022-10-23T18:38:38.358Z,14.63
2022-10-23T18:41:04.104Z,14.63
2022-10-23T18:43:43.369Z,14.67
2022-10-23T18:46:14.103Z,14.67
2022-10-23T18:48:41.151Z,14.71
2022-10-23T18:51:16.025Z,14.73
2022-10-23T18:53:42.480Z,14.79
2022-10-23T18:56:08.385Z,14.82
2022-10-23T18:58:34.116Z,14.87
2022-10-23T19:01:00.001Z,14.92
2022-10-23T19:03:25.779Z,14.96
2022-10-23T19:05:51.827Z,15.00
2022-10-23T19:08:17.549Z,15.01
2022-10-23T19:10:43.919Z,15.02
2022-10-23T19:13:09.702Z,15.04
2022-10-23T19:15:36.629Z,14.96
2022-10-23T19:18:06.376Z,14.90
2022-10-23T19:20:33.034Z,14.81
2022-10-23T19:23:00.736Z,14.76
2022-10-23T19:25:30.526Z,14.76
2022-10-23T19:27:57.779Z,14.74
2022-10-23T19:30:24.068Z,14.68
2022-10-23T19:32:50.287Z,14.68
2022-10-23T19:35:18.908Z,14.67
2022-10-23T19:37:45.160Z,14.67
2022-10-23T19:40:12.090Z,14.70
2022-10-23T19:42:39.858Z,14.66
2022-10-23T19:45:07.530Z,14.68
2022-10-23T19:47:34.159Z,14.67
2022-10-23T19:49:59.853Z,14.68
2022-10-23T19:52:25.753Z,14.67
2022-10-23T19:54:51.439Z,14.67
2022-10-23T19:57:19.327Z,14.69
2022-10-23T19:59:51.536Z,14.72
2022-10-23T20:02:18.811Z,14.72
2022-10-23T20:04:44.900Z,14.70
2022-10-23T20:07:10.615Z,14.72
2022-10-23T20:09:36.870Z,14.72
2022-10-23T20:12:03.203Z,14.76
2022-10-23T20:14:29.047Z,14.83
2022-10-23T20:16:56.067Z,14.80
2022-10-23T20:19:21.948Z,14.75
2022-10-23T20:21:48.795Z,14.70
2022-10-23T20:24:16.803Z,14.70
2022-10-23T20:26:44.804Z,14.76
2022-10-23T20:29:10.904Z,14.78
2022-10-23T20:31:38.638Z,14.80
2022-10-23T20:34:07.429Z,14.86
2022-10-23T20:36:40.177Z,14.88
2022-10-23T20:39:11.857Z,14.87
2022-10-23T20:41:39.070Z,14.89
2022-10-23T20:44:07.437Z,14.86
2022-10-23T20:46:34.118Z,14.86
2022-10-23T20:48:59.944Z,14.84
2022-10-23T20:51:26.109Z,14.85
2022-10-23T20:53:53.850Z,14.87
2022-10-23T20:56:31.596Z,14.90
2022-10-23T20:59:04.686Z,14.90
2022-10-23T21:01:31.617Z,14.88
2022-10-23T21:03:59.272Z,14.89
2022-10-23T21:06:33.991Z,14.87
2022-10-23T21:09:06.856Z,14.83
2022-10-23T21:11:34.469Z,14.84
2022-10-23T21:14:00.426Z,14.84
2022-10-23T21:16:32.377Z,14.82
2022-10-23T21:18:59.134Z,14.83
2022-10-23T21:21:25.937Z,14.82
2022-10-23T21:23:54.043Z,14.82
2022-10-23T21:26:22.164Z,14.82
2022-10-23T21:28:56.059Z,14.80
2022-10-23T21:31:32.931Z,14.79
2022-10-23T21:33:58.617Z,14.78
2022-10-23T21:36:24.533Z,14.73
2022-10-23T21:38:55.744Z,14.64
2022-10-23T21:41:24.601Z,14.59
2022-10-23T21:43:55.056Z,14.59
2022-10-23T21:46:21.724Z,14.60
2022-10-23T21:48:47.925Z,14.62
2022-10-23T21:51:36.296Z,14.61
2022-10-23T21:54:03.596Z,14.57
2022-10-23T21:56:29.135Z,14.56
2022-10-23T21:58:55.873Z,14.56
2022-10-23T22:01:21.696Z,14.57
2022-10-23T22:03:47.904Z,14.59
2022-10-23T22:06:17.333Z,14.63
2022-10-23T22:08:42.997Z,14.63
2022-10-23T22:11:11.479Z,14.68
2022-10-23T22:13:37.509Z,14.71
2022-10-23T22:16:03.904Z,14.76
2022-10-23T22:18:29.627Z,14.81
2022-10-23T22:21:01.306Z,14.86
2022-10-23T22:23:27.905Z,14.92
2022-10-23T22:25:54.144Z,14.96
2022-10-23T22:28:19.831Z,14.97
2022-10-23T22:30:45.570Z,14.98
2022-10-23T22:33:11.726Z,14.97
2022-10-23T22:35:37.394Z,15.04
2022-10-23T22:38:03.172Z,15.15
2022-10-23T22:40:28.961Z,15.25
2022-10-23T22:42:54.638Z,15.37
2022-10-23T22:45:20.431Z,15.47
2022-10-23T22:47:46.167Z,15.56
2022-10-23T22:50:11.906Z,15.61
2022-10-23T22:52:37.629Z,15.63
2022-10-23T22:55:04.195Z,15.67
2022-10-23T22:57:30.128Z,15.67
2022-10-23T22:59:55.963Z,15.68
2022-10-23T23:02:21.664Z,15.65
2022-10-23T23:04:47.368Z,15.63
2022-10-23T23:07:13.150Z,15.64
2022-10-23T23:09:42.305Z,15.61
2022-10-23T23:12:10.816Z,15.61
2022-10-23T23:14:37.264Z,15.63
2022-10-23T23:17:03.340Z,15.61
2022-10-23T23:19:29.160Z,15.62
2022-10-23T23:21:56.550Z,15.63
2022-10-23T23:24:22.287Z,15.62
2022-10-23T23:26:48.008Z,15.64
2022-10-23T23:29:13.688Z,15.65
2022-10-23T23:31:39.447Z,15.70
2022-10-23T23:34:05.688Z,15.72
2022-10-23T23:36:33.176Z,15.76
2022-10-23T23:38:59.181Z,15.79
2022-10-23T23:41:26.673Z,15.83
2022-10-23T23:43:54.534Z,15.87
2022-10-23T23:46:20.400Z,15.88
2022-10-23T23:48:49.272Z,15.91
2022-10-23T23:51:19.430Z,15.89
2022-10-23T23:53:45.648Z,15.90
2022-10-23T23:56:11.516Z,15.87
2022-10-23T23:58:37.212Z,15.86
